createdAt,value
2017-12-12T00:00:57.330Z,0
2017-12-12T00:01:57.596Z,0
2017-12-12T00:02:57.102Z,0
2017-12-12T00:03:57.383Z,0
2017-12-12T00:04:57.641Z,0
2017-12-12T00:05:57.398Z,0
2017-12-12T00:06:57.165Z,0
2017-12-12T00:07:57.677Z,0
2017-12-12T00:08:57.488Z,0
2017-12-12T00:09:57.201Z,0
2017-12-12T00:10:57.467Z,0
2017-12-12T00:11:57.480Z,0
2017-12-12T00:12:57.495Z,0
2017-12-12T00:13:57.759Z,0
2017-12-12T00:14:57.773Z,0
2017-12-12T00:15:57.791Z,0
2017-12-12T00:16:57.803Z,0
2017-12-12T00:17:57.564Z,0
2017-12-12T00:18:57.322Z,0
2017-12-12T00:19:57.863Z,0
2017-12-12T00:20:57.600Z,0
2017-12-12T00:21:57.868Z,0
2017-12-12T00:22:57.895Z,0
2017-12-12T00:23:57.897Z,0
2017-12-12T00:24:57.968Z,0
2017-12-12T00:25:57.927Z,0
2017-12-12T00:26:57.952Z,0
2017-12-12T00:27:57.959Z,0
2017-12-12T00:28:57.713Z,0
2017-12-12T00:29:57.982Z,0
2017-12-12T00:30:57.997Z,0
2017-12-12T00:31:57.754Z,0
2017-12-12T00:32:58.023Z,0
2017-12-12T00:33:57.781Z,0
2017-12-12T00:34:57.803Z,0
2017-12-12T00:35:58.062Z,0
2017-12-12T00:36:58.101Z,0
2017-12-12T00:37:57.837Z,0
2017-12-12T00:38:58.108Z,0
2017-12-12T00:39:57.663Z,0
2017-12-12T00:40:57.629Z,0
2017-12-12T00:41:58.159Z,0
2017-12-12T00:42:58.166Z,0
2017-12-12T00:43:57.920Z,0
2017-12-12T00:44:57.960Z,0
2017-12-12T00:45:58.198Z,0
2017-12-12T00:46:58.216Z,0
2017-12-12T00:47:57.973Z,0
2017-12-12T00:48:57.990Z,0
2017-12-12T00:49:58.006Z,0
2017-12-12T00:50:58.274Z,0
2017-12-12T00:51:58.287Z,0
2017-12-12T00:52:58.297Z,0
2017-12-12T00:53:58.330Z,0
2017-12-12T00:54:58.138Z,0
2017-12-12T00:55:58.098Z,0
2017-12-12T00:56:58.349Z,0
2017-12-12T00:57:58.370Z,0
2017-12-12T00:58:58.125Z,0
2017-12-12T00:59:57.899Z,0
2017-12-12T01:00:58.420Z,0
2017-12-12T01:01:58.171Z,0
2017-12-12T01:02:58.431Z,0
2017-12-12T01:03:58.449Z,0
2017-12-12T01:04:58.460Z,0
2017-12-12T01:05:58.224Z,0
2017-12-12T01:06:58.487Z,0
2017-12-12T01:07:57.999Z,0
2017-12-12T01:08:58.270Z,0
2017-12-12T01:09:58.285Z,0
2017-12-12T01:10:58.092Z,0
2017-12-12T01:11:58.311Z,0
2017-12-12T01:12:58.334Z,0
2017-12-12T01:13:58.598Z,0
2017-12-12T01:14:58.351Z,0
2017-12-12T01:15:58.359Z,0
2017-12-12T01:16:58.624Z,0
2017-12-12T01:17:58.133Z,0
2017-12-12T01:18:58.653Z,0
2017-12-12T01:19:58.666Z,0
2017-12-12T01:20:58.426Z,0
2017-12-12T01:21:58.492Z,0
2017-12-12T01:22:58.455Z,0
2017-12-12T01:23:58.473Z,0
2017-12-12T01:24:57.981Z,0
2017-12-12T01:25:58.564Z,0
2017-12-12T01:26:58.766Z,0
2017-12-12T01:27:58.780Z,0
2017-12-12T01:28:58.791Z,0
2017-12-12T01:29:58.299Z,0
2017-12-12T01:30:58.565Z,0
2017-12-12T01:31:58.583Z,0
2017-12-12T01:32:58.595Z,0
2017-12-12T01:33:58.669Z,0
2017-12-12T01:34:58.372Z,0
2017-12-12T01:35:58.891Z,0
2017-12-12T01:36:58.916Z,0
2017-12-12T01:37:58.411Z,0
2017-12-12T01:38:58.929Z,0
2017-12-12T01:39:58.445Z,0
2017-12-12T01:40:59.010Z,0
2017-12-12T01:41:58.533Z,0
2017-12-12T01:42:58.736Z,0
2017-12-12T01:43:58.999Z,0
2017-12-12T01:44:58.770Z,0
2017-12-12T01:45:58.530Z,0
2017-12-12T01:46:58.787Z,0
2017-12-12T01:47:58.800Z,0
2017-12-12T01:48:58.817Z,0
2017-12-12T01:49:58.833Z,0
2017-12-12T01:50:59.101Z,0
2017-12-12T01:51:58.856Z,0
2017-12-12T01:52:59.120Z,0
2017-12-12T01:53:58.890Z,0
2017-12-12T01:54:58.895Z,0
2017-12-12T01:55:58.961Z,0
2017-12-12T01:56:58.930Z,0
2017-12-12T01:57:59.209Z,0
2017-12-12T01:58:58.705Z,0
2017-12-12T01:59:58.969Z,0
2017-12-12T02:00:58.747Z,0
2017-12-12T02:01:59.288Z,0
2017-12-12T02:02:59.264Z,0
2017-12-12T02:03:59.029Z,0
2017-12-12T02:04:59.300Z,0
2017-12-12T02:05:58.801Z,0
2017-12-12T02:06:59.337Z,0
2017-12-12T02:07:59.333Z,0
2017-12-12T02:08:59.351Z,0
2017-12-12T02:09:59.111Z,0
2017-12-12T02:10:59.126Z,0
2017-12-12T02:11:59.440Z,0
2017-12-12T02:12:59.151Z,0
2017-12-12T02:13:59.174Z,0
2017-12-12T02:14:59.440Z,0
2017-12-12T02:15:58.941Z,0
2017-12-12T02:16:59.464Z,0
2017-12-12T02:17:59.489Z,0
2017-12-12T02:18:59.486Z,0
2017-12-12T02:19:58.996Z,0
2017-12-12T02:20:59.267Z,0
2017-12-12T02:21:59.533Z,0
2017-12-12T02:22:59.294Z,0
2017-12-12T02:23:59.306Z,0
2017-12-12T02:24:59.067Z,0
2017-12-12T02:25:59.588Z,0
2017-12-12T02:26:59.403Z,0
2017-12-12T02:27:59.628Z,0
2017-12-12T02:28:59.383Z,0
2017-12-12T02:29:59.138Z,0
2017-12-12T02:30:59.411Z,0
2017-12-12T02:31:59.423Z,0
2017-12-12T02:32:59.432Z,0
2017-12-12T02:33:59.701Z,0
2017-12-12T02:34:59.725Z,0
2017-12-12T02:35:59.728Z,0
2017-12-12T02:36:59.246Z,0
2017-12-12T02:37:59.509Z,0
2017-12-12T02:38:59.769Z,0
2017-12-12T02:39:59.532Z,0
2017-12-12T02:40:59.554Z,0
2017-12-12T02:41:59.610Z,0
2017-12-12T02:42:59.594Z,0
2017-12-12T02:43:59.599Z,0
2017-12-12T02:44:59.351Z,0
2017-12-12T02:45:59.868Z,0
2017-12-12T02:46:59.901Z,0
2017-12-12T02:47:59.907Z,0
2017-12-12T02:48:59.916Z,0
2017-12-12T02:49:59.933Z,0
2017-12-12T02:50:59.699Z,0
2017-12-12T02:51:59.456Z,0
2017-12-12T02:52:59.477Z,0
2017-12-12T02:53:59.737Z,0
2017-12-12T02:55:00.009Z,0
2017-12-12T02:55:59.807Z,0
2017-12-12T02:57:00.179Z,0
2017-12-12T02:58:00.044Z,0
2017-12-12T02:58:59.556Z,0
2017-12-12T03:00:00.084Z,0
2017-12-12T03:01:00.094Z,0
2017-12-12T03:02:00.107Z,0
2017-12-12T03:02:59.867Z,0
2017-12-12T03:03:59.884Z,0
2017-12-12T03:05:00.146Z,0
2017-12-12T03:06:00.175Z,0
2017-12-12T03:07:00.181Z,0
2017-12-12T03:07:59.947Z,0
2017-12-12T03:08:59.962Z,0
2017-12-12T03:09:59.732Z,0
2017-12-12T03:11:00.052Z,0
2017-12-12T03:12:00.050Z,0
2017-12-12T03:13:00.267Z,0
2017-12-12T03:14:00.038Z,0
2017-12-12T03:15:00.043Z,0
2017-12-12T03:16:00.320Z,0
2017-12-12T03:17:00.322Z,0
2017-12-12T03:18:00.340Z,0
2017-12-12T03:19:00.101Z,0
2017-12-12T03:20:00.115Z,0
2017-12-12T03:21:00.386Z,0
2017-12-12T03:22:00.147Z,0
2017-12-12T03:23:00.157Z,0
2017-12-12T03:24:00.177Z,0
2017-12-12T03:24:59.937Z,0
2017-12-12T03:26:00.468Z,0
2017-12-12T03:27:00.522Z,0
2017-12-12T03:28:00.510Z,0
2017-12-12T03:29:00.250Z,0
2017-12-12T03:30:00.519Z,0
2017-12-12T03:31:00.284Z,0
2017-12-12T03:32:00.548Z,0
2017-12-12T03:33:00.058Z,0
2017-12-12T03:34:00.572Z,0
2017-12-12T03:35:00.594Z,0
2017-12-12T03:36:00.605Z,0
2017-12-12T03:37:00.376Z,0
2017-12-12T03:38:00.639Z,0
2017-12-12T03:39:00.144Z,0
2017-12-12T03:40:00.160Z,0
2017-12-12T03:41:00.430Z,0
2017-12-12T03:42:00.760Z,0
2017-12-12T03:43:00.734Z,0
2017-12-12T03:44:00.473Z,0
2017-12-12T03:45:00.234Z,0
2017-12-12T03:46:00.501Z,0
2017-12-12T03:47:00.533Z,0
2017-12-12T03:48:00.535Z,0
2017-12-12T03:49:00.807Z,0
2017-12-12T03:50:00.568Z,0
2017-12-12T03:51:00.634Z,0
2017-12-12T03:52:01.000Z,0
2017-12-12T03:53:00.865Z,0
2017-12-12T03:54:00.883Z,0
2017-12-12T03:55:00.633Z,0
2017-12-12T03:56:00.912Z,0
2017-12-12T03:57:00.729Z,0
2017-12-12T03:58:00.934Z,0
2017-12-12T03:59:00.712Z,0
2017-12-12T04:00:00.710Z,0
2017-12-12T04:01:00.983Z,0
2017-12-12T04:02:00.995Z,0
2017-12-12T04:03:00.760Z,0
2017-12-12T04:04:00.520Z,0
2017-12-12T04:05:00.786Z,0
2017-12-12T04:06:00.804Z,0
2017-12-12T04:07:01.192Z,0
2017-12-12T04:08:01.036Z,0
2017-12-12T04:09:00.854Z,0
2017-12-12T04:10:00.871Z,0
2017-12-12T04:11:01.131Z,0
2017-12-12T04:12:01.214Z,0
2017-12-12T04:13:01.157Z,0
2017-12-12T04:14:00.923Z,0
2017-12-12T04:15:00.937Z,0
2017-12-12T04:16:01.204Z,0
2017-12-12T04:17:00.962Z,0
2017-12-12T04:18:00.981Z,0
2017-12-12T04:19:00.996Z,0
2017-12-12T04:20:01.265Z,0
2017-12-12T04:21:01.278Z,0
2017-12-12T04:22:01.035Z,0
2017-12-12T04:23:01.058Z,0
2017-12-12T04:24:01.330Z,0
2017-12-12T04:25:01.340Z,0
2017-12-12T04:26:01.105Z,0
2017-12-12T04:27:01.438Z,0
2017-12-12T04:28:01.384Z,0
2017-12-12T04:29:01.401Z,0
2017-12-12T04:30:01.414Z,0
2017-12-12T04:31:01.176Z,0
2017-12-12T04:32:01.446Z,0
2017-12-12T04:33:01.211Z,0
2017-12-12T04:34:01.226Z,0
2017-12-12T04:35:01.242Z,0
2017-12-12T04:36:01.259Z,0
2017-12-12T04:37:01.270Z,0
2017-12-12T04:38:01.542Z,0
2017-12-12T04:39:01.558Z,0
2017-12-12T04:40:01.568Z,0
2017-12-12T04:41:01.329Z,0
2017-12-12T04:42:01.650Z,0
2017-12-12T04:43:01.106Z,0
2017-12-12T04:44:01.625Z,0
2017-12-12T04:45:01.134Z,0
2017-12-12T04:46:01.403Z,0
2017-12-12T04:47:01.423Z,0
2017-12-12T04:48:01.193Z,0
2017-12-12T04:49:01.451Z,0
2017-12-12T04:50:01.719Z,0
2017-12-12T04:51:01.228Z,0
2017-12-12T04:52:01.744Z,0
2017-12-12T04:53:01.510Z,0
2017-12-12T04:54:01.524Z,0
2017-12-12T04:55:01.537Z,0
2017-12-12T04:56:01.808Z,0
2017-12-12T04:57:01.874Z,0
2017-12-12T04:58:01.587Z,0
2017-12-12T04:59:01.602Z,0
2017-12-12T05:00:01.364Z,0
2017-12-12T05:01:01.385Z,0
2017-12-12T05:02:01.649Z,0
2017-12-12T05:03:01.922Z,0
2017-12-12T05:04:01.676Z,0
2017-12-12T05:05:01.699Z,0
2017-12-12T05:06:01.964Z,0
2017-12-12T05:07:01.472Z,0
2017-12-12T05:08:02.001Z,0
2017-12-12T05:09:02.011Z,0
2017-12-12T05:10:01.516Z,0
2017-12-12T05:11:02.054Z,0
2017-12-12T05:12:01.952Z,0
2017-12-12T05:13:01.814Z,0
2017-12-12T05:14:02.082Z,0
2017-12-12T05:15:01.845Z,0
2017-12-12T05:16:01.860Z,0
2017-12-12T05:17:02.129Z,0
2017-12-12T05:18:02.145Z,0
2017-12-12T05:19:01.905Z,0
2017-12-12T05:20:02.174Z,0
2017-12-12T05:21:01.935Z,0
2017-12-12T05:22:01.697Z,0
2017-12-12T05:23:01.973Z,0
2017-12-12T05:24:02.230Z,0
2017-12-12T05:25:01.996Z,0
2017-12-12T05:26:02.008Z,0
2017-12-12T05:27:02.070Z,0
2017-12-12T05:28:02.037Z,0
2017-12-12T05:29:02.304Z,0
2017-12-12T05:30:02.067Z,0
2017-12-12T05:31:02.350Z,0
2017-12-12T05:32:02.404Z,0
2017-12-12T05:33:02.117Z,0
2017-12-12T05:34:02.131Z,0
2017-12-12T05:35:02.403Z,0
2017-12-12T05:36:02.438Z,0
2017-12-12T05:37:02.197Z,0
2017-12-12T05:38:01.931Z,0
2017-12-12T05:39:02.471Z,0
2017-12-12T05:40:02.470Z,0
2017-12-12T05:41:02.483Z,0
2017-12-12T05:42:02.313Z,0
2017-12-12T05:43:02.262Z,0
2017-12-12T05:44:02.020Z,0
2017-12-12T05:45:02.549Z,0
2017-12-12T05:46:02.558Z,0
2017-12-12T05:47:02.318Z,0
2017-12-12T05:48:02.338Z,0
2017-12-12T05:49:02.095Z,0
2017-12-12T05:50:02.362Z,0
2017-12-12T05:51:02.375Z,0
2017-12-12T05:52:02.399Z,0
2017-12-12T05:53:02.404Z,0
2017-12-12T05:54:02.167Z,0
2017-12-12T05:55:02.688Z,0
2017-12-12T05:56:02.202Z,0
2017-12-12T05:57:02.831Z,0
2017-12-12T05:58:02.487Z,0
2017-12-12T05:59:02.493Z,0
2017-12-12T06:00:02.509Z,0
2017-12-12T06:01:02.521Z,0
2017-12-12T06:02:02.789Z,0
2017-12-12T06:03:02.553Z,0
2017-12-12T06:04:02.817Z,0
2017-12-12T06:05:02.325Z,0
2017-12-12T06:06:02.868Z,0
2017-12-12T06:07:02.868Z,0
2017-12-12T06:08:02.895Z,0
2017-12-12T06:09:02.639Z,0
2017-12-12T06:10:02.911Z,0
2017-12-12T06:11:02.924Z,0
2017-12-12T06:12:02.984Z,0
2017-12-12T06:13:02.695Z,0
2017-12-12T06:14:02.713Z,0
2017-12-12T06:15:02.975Z,0
2017-12-12T06:16:02.997Z,0
2017-12-12T06:17:02.754Z,0
2017-12-12T06:18:02.515Z,0
2017-12-12T06:19:02.528Z,0
2017-12-12T06:20:02.793Z,0
2017-12-12T06:21:02.810Z,0
2017-12-12T06:22:03.077Z,0
2017-12-12T06:23:02.838Z,0
2017-12-12T06:24:03.116Z,0
2017-12-12T06:25:02.617Z,0
2017-12-12T06:26:03.134Z,0
2017-12-12T06:27:03.250Z,0
2017-12-12T06:28:03.172Z,0
2017-12-12T06:29:02.922Z,0
2017-12-12T06:30:02.686Z,0
2017-12-12T06:31:03.205Z,4
2017-12-12T06:32:03.224Z,4
2017-12-12T06:33:03.237Z,4
2017-12-12T06:34:03.255Z,4
2017-12-12T06:35:02.757Z,4
2017-12-12T06:36:03.021Z,8
2017-12-12T06:37:03.309Z,12
2017-12-12T06:38:03.303Z,12
2017-12-12T06:39:03.318Z,12
2017-12-12T06:40:02.825Z,16
2017-12-12T06:41:03.344Z,20
2017-12-12T06:42:03.109Z,24
2017-12-12T06:43:02.616Z,28
2017-12-12T06:44:02.893Z,36
2017-12-12T06:45:03.467Z,40
2017-12-12T06:46:02.911Z,48
2017-12-12T06:47:03.179Z,52
2017-12-12T06:48:03.447Z,60
2017-12-12T06:49:03.206Z,68
2017-12-12T06:50:02.980Z,72
2017-12-12T06:51:03.485Z,80
2017-12-12T06:52:03.502Z,88
2017-12-12T06:53:03.260Z,96
2017-12-12T06:54:03.276Z,104
2017-12-12T06:55:03.539Z,112
2017-12-12T06:56:03.566Z,120
2017-12-12T06:57:03.064Z,128
2017-12-12T06:58:03.638Z,140
2017-12-12T06:59:03.341Z,148
2017-12-12T07:00:03.360Z,152
2017-12-12T07:01:03.635Z,160
2017-12-12T07:02:03.688Z,168
2017-12-12T07:03:03.398Z,168
2017-12-12T07:04:03.668Z,172
2017-12-12T07:05:03.171Z,184
2017-12-12T07:06:03.704Z,188
2017-12-12T07:07:03.466Z,196
2017-12-12T07:08:03.474Z,204
2017-12-12T07:09:03.228Z,204
2017-12-12T07:10:03.498Z,212
2017-12-12T07:11:03.259Z,212
2017-12-12T07:12:03.771Z,212
2017-12-12T07:13:03.845Z,240
2017-12-12T07:14:03.807Z,244
2017-12-12T07:15:03.567Z,244
2017-12-12T07:16:03.580Z,240
2017-12-12T07:17:03.842Z,228
2017-12-12T07:18:03.602Z,220
2017-12-12T07:19:03.370Z,220
2017-12-12T07:20:03.632Z,220
2017-12-12T07:21:03.653Z,196
2017-12-12T07:22:03.912Z,192
2017-12-12T07:23:03.680Z,212
2017-12-12T07:24:03.688Z,216
2017-12-12T07:25:03.706Z,240
2017-12-12T07:26:03.973Z,260
2017-12-12T07:27:03.730Z,276
2017-12-12T07:28:04.052Z,280
2017-12-12T07:29:03.758Z,312
2017-12-12T07:30:03.775Z,324
2017-12-12T07:31:03.532Z,308
2017-12-12T07:32:04.048Z,328
2017-12-12T07:33:03.859Z,344
2017-12-12T07:34:03.833Z,328
2017-12-12T07:35:04.098Z,368
2017-12-12T07:36:03.853Z,412
2017-12-12T07:37:03.612Z,408
2017-12-12T07:38:03.630Z,392
2017-12-12T07:39:03.908Z,372
2017-12-12T07:40:03.911Z,360
2017-12-12T07:41:03.994Z,412
2017-12-12T07:42:03.954Z,468
2017-12-12T07:43:03.996Z,452
2017-12-12T07:44:03.964Z,376
2017-12-12T07:45:03.723Z,348
2017-12-12T07:46:03.990Z,352
2017-12-12T07:47:04.258Z,376
2017-12-12T07:48:03.762Z,392
2017-12-12T07:49:03.781Z,420
2017-12-12T07:50:04.293Z,440
2017-12-12T07:51:04.316Z,488
2017-12-12T07:52:04.071Z,524
2017-12-12T07:53:04.343Z,504
2017-12-12T07:54:04.345Z,520
2017-12-12T07:55:04.366Z,564
2017-12-12T07:56:04.386Z,584
2017-12-12T07:57:04.394Z,580
2017-12-12T07:58:04.452Z,532
2017-12-12T07:59:03.914Z,496
2017-12-12T08:00:04.177Z,464
2017-12-12T08:01:04.441Z,456
2017-12-12T08:02:04.451Z,436
2017-12-12T08:03:04.471Z,480
2017-12-12T08:04:04.229Z,488
2017-12-12T08:05:04.249Z,488
2017-12-12T08:06:04.515Z,464
2017-12-12T08:07:04.528Z,400
2017-12-12T08:08:04.290Z,388
2017-12-12T08:09:04.564Z,412
2017-12-12T08:10:04.313Z,440
2017-12-12T08:11:04.329Z,408
2017-12-12T08:12:04.600Z,392
2017-12-12T08:13:04.663Z,360
2017-12-12T08:14:04.618Z,344
2017-12-12T08:15:04.377Z,344
2017-12-12T08:16:04.648Z,392
2017-12-12T08:17:04.661Z,448
2017-12-12T08:18:04.693Z,420
2017-12-12T08:19:04.688Z,384
2017-12-12T08:20:04.702Z,372
2017-12-12T08:21:04.468Z,400
2017-12-12T08:22:04.478Z,464
2017-12-12T08:23:04.498Z,592
2017-12-12T08:24:04.757Z,644
2017-12-12T08:25:04.777Z,816
2017-12-12T08:26:04.782Z,764
2017-12-12T08:27:04.844Z,668
2017-12-12T08:28:04.814Z,688
2017-12-12T08:29:04.324Z,692
2017-12-12T08:30:04.635Z,648
2017-12-12T08:31:04.854Z,616
2017-12-12T08:32:04.616Z,644
2017-12-12T08:33:04.940Z,664
2017-12-12T08:34:04.899Z,736
2017-12-12T08:35:04.671Z,840
2017-12-12T08:36:04.933Z,936
2017-12-12T08:37:04.934Z,932
2017-12-12T08:38:04.942Z,900
2017-12-12T08:39:04.707Z,916
2017-12-12T08:40:04.723Z,952
2017-12-12T08:41:04.485Z,992
2017-12-12T08:42:04.753Z,976
2017-12-12T08:43:05.014Z,944
2017-12-12T08:44:04.772Z,856
2017-12-12T08:45:05.094Z,724
2017-12-12T08:46:04.801Z,660
2017-12-12T08:47:04.556Z,688
2017-12-12T08:48:04.317Z,704
2017-12-12T08:49:05.091Z,736
2017-12-12T08:50:04.952Z,792
2017-12-12T08:51:05.115Z,796
2017-12-12T08:52:04.879Z,840
2017-12-12T08:53:04.640Z,896
2017-12-12T08:54:05.167Z,916
2017-12-12T08:55:04.920Z,912
2017-12-12T08:56:05.191Z,992
2017-12-12T08:57:04.956Z,1080
2017-12-12T08:58:05.223Z,1140
2017-12-12T08:59:04.983Z,1156
2017-12-12T09:00:05.052Z,1116
2017-12-12T09:01:05.010Z,1088
2017-12-12T09:02:05.287Z,1148
2017-12-12T09:03:05.298Z,1188
2017-12-12T09:04:04.798Z,1096
2017-12-12T09:05:05.323Z,1008
2017-12-12T09:06:05.336Z,1012
2017-12-12T09:07:05.351Z,1068
2017-12-12T09:08:05.365Z,1188
2017-12-12T09:09:04.867Z,1272
2017-12-12T09:10:05.132Z,1340
2017-12-12T09:11:05.412Z,1388
2017-12-12T09:12:05.429Z,1456
2017-12-12T09:13:05.434Z,1512
2017-12-12T09:14:05.447Z,1664
2017-12-12T09:15:04.697Z,1840
2017-12-12T09:16:05.528Z,1784
2017-12-12T09:17:05.491Z,1616
2017-12-12T09:18:05.256Z,1628
2017-12-12T09:19:05.314Z,1732
2017-12-12T09:20:05.526Z,1784
2017-12-12T09:21:05.287Z,1752
2017-12-12T09:22:05.557Z,1596
2017-12-12T09:23:05.567Z,1492
2017-12-12T09:24:05.577Z,1460
2017-12-12T09:25:05.088Z,1444
2017-12-12T09:26:05.354Z,1444
2017-12-12T09:27:05.369Z,1432
2017-12-12T09:28:05.388Z,1528
2017-12-12T09:29:05.649Z,1708
2017-12-12T09:30:05.418Z,1848
2017-12-12T09:31:05.723Z,1760
2017-12-12T09:32:05.689Z,1708
2017-12-12T09:33:05.195Z,1660
2017-12-12T09:34:05.465Z,1604
2017-12-12T09:35:05.481Z,1504
2017-12-12T09:36:05.863Z,1420
2017-12-12T09:37:05.764Z,1328
2017-12-12T09:38:05.522Z,1240
2017-12-12T09:39:05.786Z,1280
2017-12-12T09:40:05.546Z,1464
2017-12-12T09:41:05.818Z,1656
2017-12-12T09:42:05.834Z,1728
2017-12-12T09:43:05.341Z,1744
2017-12-12T09:44:05.864Z,1948
2017-12-12T09:45:05.888Z,2120
2017-12-12T09:46:05.937Z,1972
2017-12-12T09:47:05.920Z,1708
2017-12-12T09:48:05.912Z,1780
2017-12-12T09:49:05.925Z,1656
2017-12-12T09:50:05.946Z,1572
2017-12-12T09:51:05.699Z,1580
2017-12-12T09:52:05.968Z,1544
2017-12-12T09:53:05.987Z,1452
2017-12-12T09:54:05.845Z,1440
2017-12-12T09:55:05.757Z,1576
2017-12-12T09:56:06.027Z,1780
2017-12-12T09:57:06.036Z,1936
2017-12-12T09:58:05.538Z,2012
2017-12-12T09:59:06.078Z,2016
2017-12-12T10:00:05.573Z,1988
2017-12-12T10:01:06.140Z,1936
2017-12-12T10:02:05.349Z,2036
2017-12-12T10:03:05.629Z,2240
2017-12-12T10:04:05.881Z,2368
2017-12-12T10:05:05.893Z,2380
2017-12-12T10:06:05.913Z,2524
2017-12-12T10:07:05.927Z,2760
2017-12-12T10:08:05.949Z,3080
2017-12-12T10:09:06.034Z,3268
2017-12-12T10:10:06.220Z,2988
2017-12-12T10:11:05.979Z,2512
2017-12-12T10:12:06.007Z,2396
2017-12-12T10:13:06.005Z,2456
2017-12-12T10:14:06.024Z,2536
2017-12-12T10:15:06.296Z,2856
2017-12-12T10:16:06.352Z,3476
2017-12-12T10:17:06.320Z,4236
2017-12-12T10:18:06.079Z,5000
2017-12-12T10:19:06.101Z,5340
2017-12-12T10:20:06.362Z,5684
2017-12-12T10:21:06.440Z,5660
2017-12-12T10:22:06.135Z,5012
2017-12-12T10:23:05.896Z,4344
2017-12-12T10:24:06.423Z,3156
2017-12-12T10:25:06.182Z,2332
2017-12-12T10:26:05.948Z,1960
2017-12-12T10:27:06.209Z,1708
2017-12-12T10:28:06.563Z,1784
2017-12-12T10:29:06.240Z,2544
2017-12-12T10:30:06.545Z,3496
2017-12-12T10:31:06.317Z,4540
2017-12-12T10:32:06.540Z,5136
2017-12-12T10:33:06.559Z,5284
2017-12-12T10:34:06.311Z,4928
2017-12-12T10:35:06.332Z,4372
2017-12-12T10:36:06.341Z,3532
2017-12-12T10:37:06.357Z,2852
2017-12-12T10:38:06.372Z,2572
2017-12-12T10:39:06.389Z,2480
2017-12-12T10:40:06.660Z,2304
2017-12-12T10:41:06.679Z,2020
2017-12-12T10:42:06.434Z,1716
2017-12-12T10:43:06.496Z,1604
2017-12-12T10:44:06.712Z,1600
2017-12-12T10:45:06.221Z,1568
2017-12-12T10:46:06.485Z,1668
2017-12-12T10:47:06.550Z,2360
2017-12-12T10:48:06.775Z,3380
2017-12-12T10:49:06.532Z,4688
2017-12-12T10:50:06.297Z,5096
2017-12-12T10:51:06.869Z,4816
2017-12-12T10:52:06.826Z,4164
2017-12-12T10:53:06.341Z,3312
2017-12-12T10:54:06.860Z,2504
2017-12-12T10:55:06.621Z,2088
2017-12-12T10:56:06.648Z,2076
2017-12-12T10:57:06.664Z,2216
2017-12-12T10:58:06.918Z,2156
2017-12-12T10:59:06.683Z,2096
2017-12-12T11:00:06.691Z,2260
2017-12-12T11:01:06.964Z,2500
2017-12-12T11:02:07.027Z,2832
2017-12-12T11:03:06.986Z,3356
2017-12-12T11:04:07.013Z,3824
2017-12-12T11:05:07.015Z,3900
2017-12-12T11:06:07.032Z,3576
2017-12-12T11:07:06.792Z,3124
2017-12-12T11:08:06.811Z,2660
2017-12-12T11:09:06.821Z,2244
2017-12-12T11:10:06.838Z,1984
2017-12-12T11:11:06.854Z,1936
2017-12-12T11:12:07.142Z,2092
2017-12-12T11:13:07.137Z,2428
2017-12-12T11:14:07.363Z,2804
2017-12-12T11:15:06.917Z,2960
2017-12-12T11:16:07.183Z,2784
2017-12-12T11:17:06.988Z,2636
2017-12-12T11:18:07.208Z,2616
2017-12-12T11:19:06.461Z,2520
2017-12-12T11:20:07.231Z,2452
2017-12-12T11:21:07.248Z,2644
2017-12-12T11:22:07.266Z,2952
2017-12-12T11:23:07.281Z,2968
2017-12-12T11:24:07.036Z,2484
2017-12-12T11:25:07.057Z,2104
2017-12-12T11:26:07.084Z,1912
2017-12-12T11:27:07.089Z,1752
2017-12-12T11:28:07.349Z,1644
2017-12-12T11:29:06.856Z,1608
2017-12-12T11:30:07.119Z,1488
2017-12-12T11:31:07.138Z,1328
2017-12-12T11:32:07.455Z,1296
2017-12-12T11:33:07.160Z,1380
2017-12-12T11:34:07.442Z,1724
2017-12-12T11:35:06.941Z,2200
2017-12-12T11:36:07.466Z,2488
2017-12-12T11:37:07.220Z,2592
2017-12-12T11:38:07.491Z,2668
2017-12-12T11:39:07.499Z,2596
2017-12-12T11:40:07.262Z,2440
2017-12-12T11:41:07.537Z,2400
2017-12-12T11:42:07.293Z,2512
2017-12-12T11:43:07.316Z,2812
2017-12-12T11:44:07.573Z,3008
2017-12-12T11:45:07.076Z,3068
2017-12-12T11:46:07.597Z,2932
2017-12-12T11:47:07.662Z,2760
2017-12-12T11:48:07.120Z,2684
2017-12-12T11:49:07.387Z,2660
2017-12-12T11:50:07.148Z,2588
2017-12-12T11:51:07.689Z,2508
2017-12-12T11:52:07.700Z,2452
2017-12-12T11:53:07.699Z,2412
2017-12-12T11:54:07.708Z,2392
2017-12-12T11:55:07.225Z,2384
2017-12-12T11:56:07.491Z,2468
2017-12-12T11:57:07.800Z,2444
2017-12-12T11:58:07.263Z,2244
2017-12-12T11:59:07.780Z,2024
2017-12-12T12:00:07.287Z,1772
2017-12-12T12:01:07.553Z,1620
2017-12-12T12:02:07.618Z,1588
2017-12-12T12:03:07.586Z,1452
2017-12-12T12:04:07.594Z,1320
2017-12-12T12:05:07.612Z,1316
2017-12-12T12:06:07.881Z,1312
2017-12-12T12:07:07.890Z,1248
2017-12-12T12:08:07.648Z,1184
2017-12-12T12:09:07.921Z,1152
2017-12-12T12:10:07.674Z,1212
2017-12-12T12:11:07.690Z,1316
2017-12-12T12:12:07.707Z,1436
2017-12-12T12:13:07.982Z,1456
2017-12-12T12:14:07.737Z,1416
2017-12-12T12:15:07.750Z,1432
2017-12-12T12:16:07.257Z,1412
2017-12-12T12:17:08.080Z,1556
2017-12-12T12:18:07.871Z,1740
2017-12-12T12:19:08.076Z,1812
2017-12-12T12:20:07.822Z,1808
2017-12-12T12:21:08.085Z,2024
2017-12-12T12:22:07.846Z,2272
2017-12-12T12:23:07.353Z,2332
2017-12-12T12:24:08.132Z,2268
2017-12-12T12:25:07.892Z,2128
2017-12-12T12:26:07.647Z,2008
2017-12-12T12:27:07.918Z,1816
2017-12-12T12:28:08.235Z,1740
2017-12-12T12:29:07.684Z,1780
2017-12-12T12:30:07.952Z,1748
2017-12-12T12:31:07.985Z,1636
2017-12-12T12:32:08.285Z,1576
2017-12-12T12:33:07.995Z,1660
2017-12-12T12:34:08.018Z,1780
2017-12-12T12:35:08.024Z,1920
2017-12-12T12:36:08.037Z,2132
2017-12-12T12:37:08.305Z,2440
2017-12-12T12:38:08.317Z,2556
2017-12-12T12:39:08.099Z,2504
2017-12-12T12:40:08.347Z,2372
2017-12-12T12:41:08.111Z,2200
2017-12-12T12:42:08.120Z,2068
2017-12-12T12:43:08.383Z,1992
2017-12-12T12:44:08.161Z,1940
2017-12-12T12:45:08.174Z,1852
2017-12-12T12:46:08.564Z,1780
2017-12-12T12:47:08.238Z,1744
2017-12-12T12:48:08.207Z,1760
2017-12-12T12:49:08.225Z,1828
2017-12-12T12:50:07.988Z,1948
2017-12-12T12:51:08.328Z,2148
2017-12-12T12:52:08.386Z,2392
2017-12-12T12:53:08.532Z,2580
2017-12-12T12:54:08.293Z,2584
2017-12-12T12:55:08.299Z,2344
2017-12-12T12:56:08.324Z,1984
2017-12-12T12:57:08.577Z,1644
2017-12-12T12:58:08.347Z,1408
2017-12-12T12:59:08.360Z,1248
2017-12-12T13:00:08.122Z,1156
2017-12-12T13:01:08.640Z,1132
2017-12-12T13:02:08.488Z,1140
2017-12-12T13:03:08.160Z,1156
2017-12-12T13:04:08.426Z,1268
2017-12-12T13:05:08.438Z,1432
2017-12-12T13:06:08.205Z,1568
2017-12-12T13:07:08.471Z,1696
2017-12-12T13:08:08.279Z,1828
2017-12-12T13:09:08.758Z,2008
2017-12-12T13:10:08.561Z,2032
2017-12-12T13:11:08.786Z,1800
2017-12-12T13:12:08.569Z,1568
2017-12-12T13:13:08.800Z,1496
2017-12-12T13:14:08.563Z,1512
2017-12-12T13:15:08.827Z,1564
2017-12-12T13:16:08.911Z,1600
2017-12-12T13:17:08.655Z,1704
2017-12-12T13:18:08.615Z,1764
2017-12-12T13:19:08.878Z,1724
2017-12-12T13:20:08.896Z,1692
2017-12-12T13:21:08.406Z,1636
2017-12-12T13:22:08.418Z,1544
2017-12-12T13:23:08.684Z,1444
2017-12-12T13:24:08.961Z,1432
2017-12-12T13:25:08.709Z,1500
2017-12-12T13:26:08.982Z,1644
2017-12-12T13:27:08.734Z,1756
2017-12-12T13:28:08.754Z,1776
2017-12-12T13:29:08.763Z,1748
2017-12-12T13:30:08.776Z,1740
2017-12-12T13:31:08.538Z,1772
2017-12-12T13:32:09.112Z,1784
2017-12-12T13:33:08.817Z,1728
2017-12-12T13:34:09.085Z,1680
2017-12-12T13:35:08.592Z,1584
2017-12-12T13:36:08.860Z,1464
2017-12-12T13:37:09.126Z,1400
2017-12-12T13:38:08.893Z,1284
2017-12-12T13:39:08.646Z,1144
2017-12-12T13:40:08.919Z,1020
2017-12-12T13:41:09.190Z,976
2017-12-12T13:42:08.946Z,1028
2017-12-12T13:43:09.214Z,1096
2017-12-12T13:44:09.223Z,1204
2017-12-12T13:45:08.985Z,1308
2017-12-12T13:46:08.996Z,1456
2017-12-12T13:47:09.063Z,1488
2017-12-12T13:48:09.025Z,1496
2017-12-12T13:49:09.297Z,1612
2017-12-12T13:50:09.305Z,1752
2017-12-12T13:51:09.319Z,1816
2017-12-12T13:52:08.837Z,1772
2017-12-12T13:53:08.843Z,1700
2017-12-12T13:54:09.359Z,1716
2017-12-12T13:55:09.115Z,1804
2017-12-12T13:56:09.131Z,1852
2017-12-12T13:57:09.141Z,1880
2017-12-12T13:58:09.407Z,2072
2017-12-12T13:59:09.168Z,2224
2017-12-12T14:00:09.209Z,2308
2017-12-12T14:01:09.461Z,2428
2017-12-12T14:02:08.966Z,2464
2017-12-12T14:03:09.227Z,2428
2017-12-12T14:04:09.242Z,2240